• Join FlightAware (Why Join?)
  • Login
  • US Flag 
08:55PM EDT


 

Airport Tracker/Info


-or-


 

Live Flight TrackerFlight Track Log ✈ KAP29 ✈ 20-Jul-2013 ✈ KBOS - KSLK

Flight Track Log - Related Links

Times and Time Zones

All times are in EDT time to prevent confusion due to time zone crossing. See the KAP29 flight status page for this flight to view local times or setup timezone preferences in your user account.

Time Position Orientation Groundspeed Altitude Reporting Facility
EDT Latitude Longitude Course Direction KTS MPH feet Rate Location/Type
07:29PM 42.3667 -71.0167 270° West 111 128 300  Level KA90
07:30PM 42.3667 -71.0500 270° West 111 128 1,300 900 Climbing KA90
07:31PM 42.3833 -71.0833 304° West 89 102 2,300 900 Climbing KA90
07:32PM 42.4000 -71.1167 304° West 92 106 3,200 780 Climbing KA90
07:33PM 42.4167 -71.1333 324° Northwest 104 120 3,900 420 Climbing KA90
07:34PM 42.4500 -71.1667 324° Northwest 144 166 4,100 180 Climbing KA90
07:35PM 42.4833 -71.2000 324° Northwest 141 162 4,300 300 Climbing KA90
07:37PM 42.5167 -71.2167 340° North 126 145 4,800 420 Climbing KA90
07:38PM 42.5500 -71.2167 360° North 115 132 5,300 420 Climbing KA90
07:39PM 42.5833 -71.2333 340° North 111 128 5,700 360 Climbing KA90
07:40PM 42.6000 -71.2500 324° Northwest 109 125 6,100 360 Climbing KA90
07:41PM 42.6333 -71.2667 340° North 118 136 6,500 360 Climbing KA90
07:42PM 42.6667 -71.2833 340° North 114 131 6,900 420 Climbing KA90
07:43PM 42.6833 -71.3000 324° Northwest 99 114 7,400 420 Climbing KA90
07:44PM 42.7167 -71.3333 324° Northwest 100 115 7,800 300 Climbing KA90
07:45PM 42.7333 -71.3500 324° Northwest 111 128 8,100 120 Climbing KA90
07:46PM 42.7667 -71.4000 312° West 131 151 8,100  Level KA90
07:47PM 42.7833 -71.4167 324° Northwest 135 155 8,100 -60 Level KA90
07:48PM 42.8167 -71.4667 312° West 140 161 8,000 -60 Descending KA90
07:49PM 42.8500 -71.5000 324° Northwest 145 167 8,000  Level KA90
07:50PM 42.8867 -71.5589 310° West 167 192 8,000  Level Boston Center
07:51PM 42.9164 -71.6067 310° West 147 169 8,000  Level Boston Center
07:52PM 42.9417 -71.6431 314° West 147 169 8,100  Climbing Boston Center
07:53PM 42.9731 -71.6853 315° West 147 169 8,000 -60 Descending Boston Center
07:54PM 43.0067 -71.7331 314° West 147 169 8,000  Level Boston Center
07:55PM 43.0361 -71.7697 318° Northwest 147 169 8,000  Level Boston Center
07:56PM 43.0633 -71.8064 315° West 142 163 8,100  Climbing Boston Center
07:57PM 43.0908 -71.8431 316° Northwest 142 163 8,000  Descending Boston Center
07:58PM 43.1158 -71.8742 318° Northwest 135 155 8,100  Climbing Boston Center
07:59PM 43.1411 -71.9108 313° West 135 155 8,000  Descending Boston Center
08:00PM 43.1664 -71.9447 316° Northwest 135 155 8,100  Climbing Boston Center
08:01PM 43.1914 -71.9789 315° West 130 150 8,100  Level Boston Center
08:02PM 43.2167 -72.0128 316° Northwest 125 144 8,100  Level Boston Center
08:03PM 43.2417 -72.0497 313° West 125 144 8,100  Level Boston Center
08:04PM 43.2625 -72.0808 313° West 125 144 8,100  Level Boston Center
08:05PM 43.2856 -72.1122 315° West 119 137 8,100  Level Boston Center
08:06PM 43.3086 -72.1433 316° Northwest 113 130 8,100 -60 Level Boston Center
08:07PM 43.3336 -72.1747 318° Northwest 119 137 8,000  Descending Boston Center
08:08PM 43.3567 -72.2089 313° West 124 143 8,100  Climbing Boston Center
08:09PM 43.3839 -72.2458 315° West 129 148 8,000  Descending Boston Center
08:10PM 43.4089 -72.2800 315° West 135 155 8,200 60 Climbing Boston Center
08:11PM 43.4339 -72.3142 315° West 135 155 8,200  Level Boston Center
08:12PM 43.4569 -72.3456 315° West 129 148 8,200  Level Boston Center
08:13PM 43.4819 -72.3800 315° West 129 148 8,200  Level Boston Center
08:14PM 43.5111 -72.4228 313° West 129 148 8,200  Level Boston Center
08:15PM 43.5403 -72.4600 317° Northwest 136 157 8,200  Level Boston Center
08:16PM 43.5675 -72.5003 313° West 136 157 8,200  Level Boston Center
08:17PM 43.5925 -72.5317 318° Northwest 136 157 8,200  Level Boston Center
08:18PM 43.6194 -72.5719 313° West 136 157 8,200 -60 Level Boston Center
08:19PM 43.6444 -72.6094 313° West 136 157 8,100  Descending Boston Center
08:20PM 43.6694 -72.6411 318° Northwest 136 157 8,200  Climbing Boston Center
08:21PM 43.6903 -72.6697 315° West 129 148 8,100 -60 Descending Boston Center
08:22PM 43.7108 -72.7014 312° West 124 143 8,100  Level Boston Center
08:23PM 43.7381 -72.7361 317° Northwest 124 143 8,100  Level Boston Center
08:24PM 43.7628 -72.7736 312° West 124 143 8,100  Level Boston Center
08:25PM 43.7897 -72.8111 315° West 124 143 8,100  Level Boston Center
08:26PM 43.8147 -72.8458 315° West 129 148 8,100  Level Boston Center
08:27PM 43.8417 -72.8833 315° West 129 148 8,100  Level Boston Center
08:28PM 43.8686 -72.9239 313° West 134 154 8,100  Level Boston Center
08:29PM 43.8975 -72.9558 321° Northwest 134 154 8,100 -60 Level Boston Center
08:30PM 43.9183 -72.9964 306° West 134 154 8,000 -60 Descending Boston Center
08:31PM 43.9347 -73.0425 296° West 134 154 8,000 -240 Level Boston Center
08:32PM 43.9636 -73.0892 311° West 140 161 7,600 -420 Descending Boston Center
08:33PM 43.9967 -73.1297 319° Northwest 152 175 7,200 -300 Descending Boston Center
08:34PM 44.0319 -73.1736 318° Northwest 163 188 7,000 -120 Descending Boston Center
08:35PM 44.0628 -73.2144 316° Northwest 163 188 7,000  Level Boston Center
08:36PM 44.0958 -73.2494 323° Northwest 158 182 7,000  Level Boston Center
08:37PM 44.1247 -73.2875 317° Northwest 153 176 7,000  Level Boston Center
08:38PM 44.1536 -73.3283 315° West 143 165 7,000  Level Boston Center
08:39PM 44.1806 -73.3664 315° West 143 165 7,000  Level Boston Center
08:40PM 44.2072 -73.4075 312° West 138 159 7,000  Level Boston Center
08:41PM 44.2361 -73.4456 317° Northwest 138 159 7,000  Level Boston Center
08:42PM 44.2628 -73.4894 310° West 138 159 7,000  Level Boston Center
08:43PM 44.2894 -73.5247 317° Northwest 138 159 7,000  Level Boston Center
08:44PM 44.3164 -73.5631 314° West 143 165 7,000  Level Boston Center
08:45PM 44.3408 -73.6011 312° West 143 165 7,000 -60 Level Boston Center
08:46PM 44.3675 -73.6422 312° West 143 165 6,900 -360 Descending Boston Center
08:47PM 44.3753 -73.7006 281° West 143 165 6,300 -540 Descending Boston Center
08:48PM 44.3786 -73.7644 274° West 154 177 5,900 -300 Descending Boston Center
08:49PM 44.3800 -73.8228 272° West 159 183 5,800 -60 Descending Boston Center
08:50PM 44.3814 -73.8836 272° West 159 183 5,800  Level Boston Center